Time;durP1;ratioP1;P1;durP2;ratioP2;P2;SDS_P1;SDS_P2;PMS_P1;PMS_P2;Temp;Humidity;BMP_temperature;BMP_pressure;BME280_temperature;BME280_humidity;BME280_pressure;Samples;Min_cycle;Max_cycle;Signal;HPM_P1;HPM_P2
2023/05/21 00:00:37;;;;;;;20.85;14.02;;;;;;;;;;5056450;28;20044;-80
2023/05/21 00:03:02;;;;;;;19.10;13.73;;;;;;;;;;5037969;28;20541;-79
2023/05/21 00:05:28;;;;;;;21.50;14.32;;;;;;;;;;5056313;28;20037;-81
2023/05/21 00:07:53;;;;;;;29.80;14.55;;;;;;;;;;5054973;28;20035;-81
2023/05/21 00:10:19;;;;;;;19.80;13.30;;;;;;;;;;5056018;28;20025;-81
2023/05/21 00:12:45;;;;;;;23.02;14.32;;;;;;;;;;5037096;28;20088;-81
2023/05/21 00:15:11;;;;;;;19.33;13.57;;;;;;;;;;5037264;28;20500;-81
2023/05/21 00:17:36;;;;;;;20.30;14.35;;;;;;;;;;5055639;28;20033;-82
2023/05/21 00:20:05;;;;;;;20.83;13.77;;;;;;;;;;5056762;28;20021;-81
2023/05/21 00:22:32;;;;;;;21.42;14.88;;;;;;;;;;5056682;28;20092;-81
2023/05/21 00:24:57;;;;;;;22.38;14.80;;;;;;;;;;5055775;28;20067;-81
2023/05/21 00:27:23;;;;;;;21.52;14.68;;;;;;;;;;5056798;28;20365;-81
2023/05/21 00:29:48;;;;;;;22.87;14.90;;;;;;;;;;5056649;28;20108;-82
2023/05/21 00:32:13;;;;;;;24.17;14.93;;;;;;;;;;5056380;28;20269;-80
2023/05/21 00:34:38;;;;;;;22.97;14.83;;;;;;;;;;5055786;28;20029;-82
2023/05/21 00:37:03;;;;;;;22.27;14.33;;;;;;;;;;5037937;28;20273;-81
2023/05/21 00:39:29;;;;;;;22.15;15.02;;;;;;;;;;5037988;28;20768;-81
2023/05/21 00:41:55;;;;;;;22.40;15.17;;;;;;;;;;5038045;28;20028;-81
2023/05/21 00:44:21;;;;;;;27.50;15.75;;;;;;;;;;5055930;28;20341;-81
2023/05/21 00:46:47;;;;;;;22.77;15.13;;;;;;;;;;5056074;28;20056;-82
2023/05/21 00:49:13;;;;;;;23.30;14.80;;;;;;;;;;5055106;28;20060;-82
2023/05/21 00:51:39;;;;;;;26.63;14.77;;;;;;;;;;5055449;28;20021;-82
2023/05/21 00:54:04;;;;;;;21.60;14.85;;;;;;;;;;5037566;28;20139;-82
2023/05/21 00:56:30;;;;;;;25.88;15.13;;;;;;;;;;5059714;28;20017;-82
2023/05/21 00:58:58;;;;;;;24.48;14.68;;;;;;;;;;5041645;28;20047;-82
2023/05/21 01:01:26;;;;;;;21.17;14.75;;;;;;;;;;5059697;28;20111;-82
2023/05/21 01:03:56;;;;;;;22.35;14.88;;;;;;;;;;5041013;28;20023;-82
2023/05/21 01:06:21;;;;;;;27.75;15.57;;;;;;;;;;5059048;28;20476;-82
2023/05/21 01:08:46;;;;;;;22.77;14.63;;;;;;;;;;5059222;28;20040;-81
2023/05/21 01:11:13;;;;;;;23.45;15.25;;;;;;;;;;5059179;28;20025;-82
2023/05/21 01:13:40;;;;;;;22.73;15.20;;;;;;;;;;5058294;28;20033;-82
2023/05/21 01:16:07;;;;;;;20.95;14.48;;;;;;;;;;5040271;28;20032;-79
2023/05/21 01:18:33;;;;;;;20.23;13.70;;;;;;;;;;5058668;28;20070;-81
2023/05/21 01:21:01;;;;;;;20.08;14.32;;;;;;;;;;5041174;28;20036;-81
2023/05/21 01:23:26;;;;;;;24.02;15.05;;;;;;;;;;5040730;28;20040;-82
2023/05/21 01:25:51;;;;;;;24.33;15.15;;;;;;;;;;5059779;28;20427;-82
2023/05/21 01:28:17;;;;;;;23.37;15.00;;;;;;;;;;5059679;28;20061;-83
2023/05/21 01:30:43;;;;;;;21.27;14.63;;;;;;;;;;5059342;28;20274;-82
2023/05/21 01:33:16;;;;;;;21.80;14.75;;;;;;;;;;5041295;28;20257;-82
2023/05/21 01:36:03;;;;;;;29.60;15.35;;;;;;;;;;5041344;28;20116;-82
2023/05/21 01:38:47;;;;;;;23.10;14.57;;;;;;;;;;5059827;28;20041;-83
2023/05/21 01:41:17;;;;;;;21.50;14.35;;;;;;;;;;5058933;28;20029;-82
2023/05/21 01:43:45;;;;;;;20.70;14.50;;;;;;;;;;5059166;28;20029;-82
2023/05/21 01:46:14;;;;;;;21.25;15.07;;;;;;;;;;5058863;28;20059;-83
2023/05/21 01:48:40;;;;;;;22.75;14.80;;;;;;;;;;5042099;28;20047;-82
2023/05/21 01:51:06;;;;;;;23.73;14.60;;;;;;;;;;5059152;28;20033;-82
2023/05/21 01:53:31;;;;;;;22.45;15.02;;;;;;;;;;5040509;28;20021;-83
2023/05/21 01:55:58;;;;;;;22.13;14.52;;;;;;;;;;5040782;28;20025;-81
2023/05/21 01:58:23;;;;;;;21.88;14.57;;;;;;;;;;5039738;28;20040;-81
2023/05/21 02:00:51;;;;;;;23.67;15.55;;;;;;;;;;5057740;28;20029;-81
2023/05/21 02:03:18;;;;;;;21.50;14.00;;;;;;;;;;5057455;28;20059;-81
2023/05/21 02:05:44;;;;;;;21.52;14.00;;;;;;;;;;5057217;28;20031;-80
2023/05/21 02:08:10;;;;;;;22.48;14.73;;;;;;;;;;5039415;28;20021;-81
2023/05/21 02:10:35;;;;;;;25.15;14.65;;;;;;;;;;5057132;28;20025;-82
2023/05/21 02:13:00;;;;;;;20.63;14.27;;;;;;;;;;5039397;28;20051;-80
2023/05/21 02:15:26;;;;;;;23.90;15.48;;;;;;;;;;5057402;28;20055;-80
2023/05/21 02:17:51;;;;;;;20.05;14.15;;;;;;;;;;5057563;28;20025;-81
2023/05/21 02:20:17;;;;;;;23.83;14.40;;;;;;;;;;5057489;28;20484;-80
2023/05/21 02:22:44;;;;;;;22.33;14.23;;;;;;;;;;5057586;28;20037;-80
2023/05/21 02:25:11;;;;;;;21.60;14.45;;;;;;;;;;5057467;28;20365;-82
2023/05/21 02:27:37;;;;;;;24.70;15.20;;;;;;;;;;5057643;28;20025;-82
2023/05/21 02:30:04;;;;;;;22.33;15.20;;;;;;;;;;5039249;28;20021;-82
2023/05/21 02:32:33;;;;;;;23.30;15.35;;;;;;;;;;5039117;28;20037;-81
2023/05/21 02:35:00;;;;;;;24.40;15.20;;;;;;;;;;5057795;28;20029;-83
2023/05/21 02:37:26;;;;;;;22.15;14.93;;;;;;;;;;5039296;28;20029;-82
2023/05/21 02:39:55;;;;;;;26.00;15.32;;;;;;;;;;5039031;28;20043;-81
2023/05/21 02:42:21;;;;;;;21.08;14.35;;;;;;;;;;5039177;28;20025;-81
2023/05/21 02:44:46;;;;;;;22.33;14.27;;;;;;;;;;5057104;28;20067;-82
2023/05/21 02:47:12;;;;;;;23.50;14.87;;;;;;;;;;5056997;28;20392;-82
2023/05/21 02:49:37;;;;;;;21.40;14.68;;;;;;;;;;5039165;28;20314;-81
2023/05/21 02:52:03;;;;;;;23.70;15.03;;;;;;;;;;5057217;28;20025;-81
2023/05/21 02:54:28;;;;;;;22.17;14.52;;;;;;;;;;5057100;28;20314;-81
2023/05/21 02:56:53;;;;;;;21.23;14.40;;;;;;;;;;5056932;28;20029;-81
2023/05/21 02:59:18;;;;;;;26.48;13.80;;;;;;;;;;5057552;28;20364;-80
2023/05/21 03:01:44;;;;;;;21.17;14.03;;;;;;;;;;5056307;28;20033;-81
2023/05/21 03:04:09;;;;;;;24.20;15.85;;;;;;;;;;5056733;28;20263;-80
2023/05/21 03:06:35;;;;;;;24.42;14.25;;;;;;;;;;5056744;28;20021;-81
2023/05/21 03:09:01;;;;;;;25.10;14.52;;;;;;;;;;5056356;28;20032;-81
2023/05/21 03:11:26;;;;;;;23.33;14.48;;;;;;;;;;5057038;28;20047;-81
2023/05/21 03:13:52;;;;;;;23.07;13.93;;;;;;;;;;5056522;28;20024;-80
2023/05/21 03:16:17;;;;;;;26.83;14.77;;;;;;;;;;5057170;28;20467;-83
2023/05/21 03:18:43;;;;;;;21.35;13.68;;;;;;;;;;5056057;28;20290;-84
2023/05/21 03:21:12;;;;;;;21.77;14.80;;;;;;;;;;5056384;28;20024;-80
2023/05/21 03:23:37;;;;;;;19.92;13.88;;;;;;;;;;5058538;28;20025;-81
2023/05/21 03:26:03;;;;;;;21.08;14.40;;;;;;;;;;5062277;28;20063;-82
2023/05/21 03:28:28;;;;;;;23.23;14.73;;;;;;;;;;5060802;28;20032;-80
2023/05/21 03:30:53;;;;;;;23.67;14.18;;;;;;;;;;5059908;28;20405;-82
2023/05/21 03:33:19;;;;;;;22.67;14.97;;;;;;;;;;5061157;28;20024;-80
2023/05/21 03:35:44;;;;;;;24.40;15.25;;;;;;;;;;5040984;28;20284;-80
2023/05/21 03:38:09;;;;;;;21.30;14.37;;;;;;;;;;5059095;28;20017;-80
2023/05/21 03:40:35;;;;;;;22.02;14.93;;;;;;;;;;5059613;28;20261;-81
2023/05/21 03:43:00;;;;;;;24.75;14.98;;;;;;;;;;5062664;28;20028;-81
2023/05/21 03:45:25;;;;;;;21.83;14.63;;;;;;;;;;5060336;28;20028;-81
2023/05/21 03:47:50;;;;;;;24.35;15.82;;;;;;;;;;5061719;28;20260;-82
2023/05/21 03:50:16;;;;;;;19.92;13.70;;;;;;;;;;5059905;28;20028;-82
2023/05/21 03:52:41;;;;;;;21.63;15.75;;;;;;;;;;5061861;28;20100;-82
2023/05/21 03:55:07;;;;;;;24.27;15.15;;;;;;;;;;5041291;28;20032;-82
2023/05/21 03:57:32;;;;;;;22.15;14.63;;;;;;;;;;5037982;28;20029;-82
2023/05/21 04:00:00;;;;;;;20.73;14.37;;;;;;;;;;5056066;28;20403;-81
2023/05/21 04:02:26;;;;;;;20.92;14.27;;;;;;;;;;5037942;28;20269;-81
2023/05/21 04:04:52;;;;;;;20.60;13.90;;;;;;;;;;5055733;28;20025;-82
2023/05/21 04:07:21;;;;;;;23.98;14.35;;;;;;;;;;5055862;28;20412;-81
2023/05/21 04:09:46;;;;;;;20.02;14.00;;;;;;;;;;5056333;28;20017;-81
2023/05/21 04:12:11;;;;;;;22.95;14.30;;;;;;;;;;5056004;28;20044;-80
2023/05/21 04:14:37;;;;;;;21.83;14.65;;;;;;;;;;5037733;28;20511;-81
2023/05/21 04:17:05;;;;;;;22.63;14.20;;;;;;;;;;5037752;28;20024;-81
2023/05/21 04:19:31;;;;;;;21.42;14.63;;;;;;;;;;5055664;28;20032;-81
2023/05/21 04:21:57;;;;;;;23.17;14.80;;;;;;;;;;5055603;28;20029;-80
2023/05/21 04:24:22;;;;;;;21.05;14.32;;;;;;;;;;5056519;28;20025;-81
2023/05/21 04:26:48;;;;;;;23.17;13.80;;;;;;;;;;5039851;28;20031;-83
2023/05/21 04:29:16;;;;;;;25.08;14.13;;;;;;;;;;5041233;28;20032;-80
2023/05/21 04:31:42;;;;;;;23.30;14.07;;;;;;;;;;5061563;28;20044;-81
2023/05/21 04:34:08;;;;;;;19.27;13.88;;;;;;;;;;5061015;28;20029;-82
2023/05/21 04:36:33;;;;;;;27.98;14.45;;;;;;;;;;5061141;28;20048;-82
2023/05/21 04:38:58;;;;;;;22.38;14.80;;;;;;;;;;5042267;28;20028;-82
2023/05/21 04:41:24;;;;;;;22.60;14.80;;;;;;;;;;5060578;28;20032;-82
2023/05/21 04:43:53;;;;;;;19.58;13.95;;;;;;;;;;5061660;28;20035;-83
2023/05/21 04:46:19;;;;;;;18.80;13.85;;;;;;;;;;5061303;28;20403;-80
2023/05/21 04:48:45;;;;;;;22.35;14.32;;;;;;;;;;5062098;28;20028;-82
2023/05/21 04:51:10;;;;;;;21.55;14.20;;;;;;;;;;5062303;28;20109;-81
2023/05/21 04:53:36;;;;;;;21.03;13.67;;;;;;;;;;5044191;28;20060;-82
2023/05/21 04:56:02;;;;;;;22.42;14.45;;;;;;;;;;5061308;28;20246;-81
2023/05/21 04:58:28;;;;;;;21.92;15.02;;;;;;;;;;5043238;28;20112;-81
2023/05/21 05:00:53;;;;;;;21.50;13.52;;;;;;;;;;5061177;28;20043;-81
2023/05/21 05:03:18;;;;;;;20.35;13.15;;;;;;;;;;5061771;28;20126;-82
2023/05/21 05:05:44;;;;;;;21.83;12.98;;;;;;;;;;5062295;28;20039;-82
2023/05/21 05:08:10;;;;;;;20.95;12.90;;;;;;;;;;5043257;28;20567;-82
2023/05/21 05:10:35;;;;;;;20.67;14.07;;;;;;;;;;5043357;28;20090;-83
2023/05/21 05:13:00;;;;;;;19.73;13.13;;;;;;;;;;5059982;28;20112;-83
2023/05/21 05:15:26;;;;;;;22.37;14.03;;;;;;;;;;5058720;28;20267;-81
2023/05/21 05:17:53;;;;;;;23.67;14.60;;;;;;;;;;5059042;28;20262;-81
2023/05/21 05:20:18;;;;;;;19.88;14.07;;;;;;;;;;5040926;28;20289;-79
2023/05/21 05:22:43;;;;;;;23.08;15.07;;;;;;;;;;5058694;28;20020;-81
2023/05/21 05:25:09;;;;;;;23.13;14.57;;;;;;;;;;5062504;28;20179;-81
2023/05/21 05:27:34;;;;;;;21.95;13.85;;;;;;;;;;5061627;28;20264;-80
2023/05/21 05:29:59;;;;;;;20.15;12.85;;;;;;;;;;5041220;28;20032;-82
2023/05/21 05:32:24;;;;;;;19.65;12.60;;;;;;;;;;5059563;28;20060;-82
2023/05/21 05:34:50;;;;;;;19.38;13.00;;;;;;;;;;5041825;28;20017;-81
2023/05/21 05:37:15;;;;;;;18.35;13.10;;;;;;;;;;5060786;28;20029;-82
2023/05/21 05:39:40;;;;;;;20.15;13.15;;;;;;;;;;5060726;28;20029;-80
2023/05/21 05:42:05;;;;;;;20.07;13.37;;;;;;;;;;5042064;28;20079;-81
2023/05/21 05:44:31;;;;;;;17.80;12.50;;;;;;;;;;5060201;28;20301;-81
2023/05/21 05:46:56;;;;;;;18.58;12.55;;;;;;;;;;5043053;28;20032;-81
2023/05/21 05:49:21;;;;;;;20.13;12.17;;;;;;;;;;5061365;28;20025;-83
2023/05/21 05:51:46;;;;;;;19.70;12.30;;;;;;;;;;5059671;28;20258;-82
2023/05/21 05:54:12;;;;;;;19.57;12.63;;;;;;;;;;5040916;28;20289;-81
2023/05/21 05:56:37;;;;;;;17.95;12.93;;;;;;;;;;5059453;28;20254;-82
2023/05/21 05:59:02;;;;;;;22.80;12.97;;;;;;;;;;5041073;28;20071;-82
2023/05/21 06:01:27;;;;;;;17.70;11.80;;;;;;;;;;5059525;28;20257;-81
2023/05/21 06:03:52;;;;;;;18.70;12.40;;;;;;;;;;5061581;28;20272;-82
2023/05/21 06:06:18;;;;;;;18.67;11.73;;;;;;;;;;5060491;28;20329;-80
2023/05/21 06:08:43;;;;;;;18.50;11.75;;;;;;;;;;5060763;28;20258;-84
2023/05/21 06:11:09;;;;;;;15.38;11.10;;;;;;;;;;5060058;28;20062;-81
2023/05/21 06:13:35;;;;;;;18.17;12.15;;;;;;;;;;5044645;28;20025;-81
2023/05/21 06:16:00;;;;;;;20.35;12.25;;;;;;;;;;5043147;28;20365;-83
2023/05/21 06:18:25;;;;;;;18.92;12.40;;;;;;;;;;5041827;28;20116;-83
2023/05/21 06:20:51;;;;;;;17.87;11.23;;;;;;;;;;5061050;28;20029;-83
2023/05/21 06:23:16;;;;;;;20.27;10.95;;;;;;;;;;5059882;28;20269;-82
2023/05/21 06:25:41;;;;;;;21.60;11.20;;;;;;;;;;5060606;28;20441;-83
2023/05/21 06:28:06;;;;;;;14.87;10.93;;;;;;;;;;5042735;28;20159;-82
2023/05/21 06:30:31;;;;;;;19.27;11.15;;;;;;;;;;5060042;28;20317;-83
2023/05/21 06:33:00;;;;;;;17.43;11.97;;;;;;;;;;5060268;28;20016;-82
2023/05/21 06:35:25;;;;;;;16.60;10.70;;;;;;;;;;5058441;28;20284;-83
2023/05/21 06:37:50;;;;;;;20.00;11.02;;;;;;;;;;5058936;28;20480;-85
2023/05/21 06:40:16;;;;;;;14.80;10.23;;;;;;;;;;5040737;28;20029;-84
2023/05/21 06:42:41;;;;;;;14.88;10.45;;;;;;;;;;5040115;28;20288;-83
2023/05/21 06:45:06;;;;;;;15.10;9.93;;;;;;;;;;5039865;28;20036;-82
2023/05/21 06:47:32;;;;;;;15.98;10.63;;;;;;;;;;5040533;28;20678;-82
2023/05/21 06:49:58;;;;;;;17.50;10.87;;;;;;;;;;5057574;28;20112;-83
2023/05/21 06:52:23;;;;;;;17.33;10.35;;;;;;;;;;5039268;28;20257;-83
2023/05/21 06:54:48;;;;;;;17.27;10.05;;;;;;;;;;5058128;28;20488;-83
2023/05/21 06:57:14;;;;;;;15.30;10.50;;;;;;;;;;5057525;28;20162;-83
2023/05/21 06:59:40;;;;;;;16.42;10.45;;;;;;;;;;5057220;28;20496;-80
2023/05/21 07:02:05;;;;;;;14.85;10.43;;;;;;;;;;5058836;28;20053;-82
2023/05/21 07:04:30;;;;;;;14.82;9.65;;;;;;;;;;5060279;28;20480;-82
2023/05/21 07:06:56;;;;;;;18.92;9.85;;;;;;;;;;5058409;28;20035;-82
2023/05/21 07:09:21;;;;;;;14.17;10.23;;;;;;;;;;5041230;28;20024;-81
2023/05/21 07:11:46;;;;;;;13.35;9.85;;;;;;;;;;5058236;28;20253;-83
2023/05/21 07:14:11;;;;;;;16.52;10.35;;;;;;;;;;5058149;28;20033;-80
2023/05/21 07:16:37;;;;;;;12.97;10.33;;;;;;;;;;5040072;28;20154;-82
2023/05/21 07:19:03;;;;;;;16.63;10.18;;;;;;;;;;5056858;28;20265;-83
2023/05/21 07:21:28;;;;;;;13.85;10.20;;;;;;;;;;5057362;28;20029;-82
2023/05/21 07:23:53;;;;;;;14.63;9.93;;;;;;;;;;5058619;28;20056;-82
2023/05/21 07:26:18;;;;;;;17.20;9.87;;;;;;;;;;5058025;28;20043;-81
2023/05/21 07:28:44;;;;;;;13.88;10.30;;;;;;;;;;5057203;28;20254;-79
2023/05/21 07:31:10;;;;;;;15.25;10.35;;;;;;;;;;5038778;28;20017;-82
2023/05/21 07:33:36;;;;;;;15.68;10.15;;;;;;;;;;5057378;28;20028;-81
2023/05/21 07:36:01;;;;;;;15.93;10.82;;;;;;;;;;5056947;28;20031;-81
2023/05/21 07:38:26;;;;;;;18.83;9.53;;;;;;;;;;5057363;28;20024;-82
2023/05/21 07:40:52;;;;;;;14.13;10.53;;;;;;;;;;5038743;28;20262;-82
2023/05/21 07:43:17;;;;;;;14.50;10.60;;;;;;;;;;5057230;28;20258;-81
2023/05/21 07:45:42;;;;;;;17.60;10.47;;;;;;;;;;5056975;28;20499;-81
2023/05/21 07:48:07;;;;;;;15.37;10.67;;;;;;;;;;5038799;28;20753;-82
2023/05/21 07:50:32;;;;;;;14.03;10.43;;;;;;;;;;5056530;28;20752;-82
2023/05/21 07:52:58;;;;;;;16.20;10.83;;;;;;;;;;5057107;28;20756;-82
2023/05/21 07:55:23;;;;;;;16.83;10.23;;;;;;;;;;5057222;28;20767;-83
2023/05/21 07:57:51;;;;;;;14.93;10.50;;;;;;;;;;5057178;28;20738;-82
2023/05/21 08:00:16;;;;;;;19.30;10.82;;;;;;;;;;5056519;28;20025;-81
2023/05/21 08:02:42;;;;;;;15.30;9.93;;;;;;;;;;5056373;28;20124;-80
2023/05/21 08:05:09;;;;;;;17.60;10.75;;;;;;;;;;5056415;28;20028;-82
2023/05/21 08:07:34;;;;;;;13.73;10.18;;;;;;;;;;5057258;28;20492;-81
2023/05/21 08:09:59;;;;;;;16.93;9.77;;;;;;;;;;5056764;28;20028;-83
2023/05/21 08:12:24;;;;;;;15.07;10.30;;;;;;;;;;5039460;28;20273;-84
2023/05/21 08:14:50;;;;;;;15.63;10.60;;;;;;;;;;5039333;28;20115;-83
2023/05/21 08:17:15;;;;;;;12.77;9.93;;;;;;;;;;5057294;28;20297;-83
2023/05/21 08:19:40;;;;;;;14.02;11.05;;;;;;;;;;5058393;28;20017;-80
2023/05/21 08:22:06;;;;;;;14.88;9.52;;;;;;;;;;5056841;28;20029;-84
2023/05/21 08:24:31;;;;;;;14.05;9.40;;;;;;;;;;5056935;28;20025;-83
2023/05/21 08:26:56;;;;;;;15.57;10.13;;;;;;;;;;5058003;28;20504;-82
2023/05/21 08:29:22;;;;;;;19.70;9.33;;;;;;;;;;5058218;28;20032;-82
2023/05/21 08:31:47;;;;;;;12.47;9.20;;;;;;;;;;5057180;28;20281;-81
2023/05/21 08:34:12;;;;;;;14.10;9.73;;;;;;;;;;5040841;28;20250;-82
2023/05/21 08:36:37;;;;;;;18.20;9.73;;;;;;;;;;5040965;28;20266;-83
2023/05/21 08:39:03;;;;;;;13.27;9.40;;;;;;;;;;5061212;28;20472;-82
2023/05/21 08:41:30;;;;;;;13.63;9.25;;;;;;;;;;5058686;28;20054;-82
2023/05/21 08:43:56;;;;;;;9.98;8.20;;;;;;;;;;5057909;28;20036;-82
2023/05/21 08:46:23;;;;;;;17.00;9.05;;;;;;;;;;5058210;28;20047;-83
2023/05/21 08:48:50;;;;;;;13.52;9.73;;;;;;;;;;5057962;28;20033;-81
2023/05/21 08:51:15;;;;;;;12.85;9.40;;;;;;;;;;5056545;28;20025;-82
2023/05/21 08:53:41;;;;;;;13.80;9.07;;;;;;;;;;5056635;28;20029;-81
2023/05/21 08:56:06;;;;;;;11.60;8.85;;;;;;;;;;5056533;28;20021;-83
2023/05/21 08:58:32;;;;;;;14.82;9.98;;;;;;;;;;5038533;28;20017;-82
2023/05/21 09:00:58;;;;;;;14.63;9.60;;;;;;;;;;5055586;28;20028;-84
2023/05/21 09:03:23;;;;;;;15.18;9.82;;;;;;;;;;5056553;28;20502;-81
2023/05/21 09:05:50;;;;;;;12.40;9.30;;;;;;;;;;5056883;28;20107;-82
2023/05/21 09:08:30;;;;;;;14.63;8.80;;;;;;;;;;5055896;28;20052;-82
2023/05/21 09:10:55;;;;;;;13.05;9.20;;;;;;;;;;5037790;28;20043;-81
2023/05/21 09:13:20;;;;;;;13.85;8.85;;;;;;;;;;5036891;28;20063;-81
2023/05/21 09:15:46;;;;;;;13.47;9.00;;;;;;;;;;5056510;28;20048;-81
2023/05/21 09:18:12;;;;;;;12.52;8.77;;;;;;;;;;5058745;28;20323;-80
2023/05/21 09:20:37;;;;;;;13.48;8.93;;;;;;;;;;5059039;28;20031;-82
2023/05/21 09:23:04;;;;;;;13.07;9.05;;;;;;;;;;5043366;28;20025;-81
2023/05/21 09:25:30;;;;;;;12.38;9.02;;;;;;;;;;5060912;28;20052;-84
2023/05/21 09:27:56;;;;;;;15.35;9.25;;;;;;;;;;5060057;28;20032;-83
2023/05/21 09:30:21;;;;;;;12.85;9.15;;;;;;;;;;5060564;28;20053;-85
2023/05/21 09:32:53;;;;;;;14.03;9.50;;;;;;;;;;5060846;28;20112;-85
2023/05/21 09:35:19;;;;;;;11.73;9.35;;;;;;;;;;5044075;28;20262;-83
2023/05/21 09:37:47;;;;;;;13.32;9.63;;;;;;;;;;5062278;28;20027;-83
2023/05/21 09:40:18;;;;;;;13.68;9.15;;;;;;;;;;5062170;28;20017;-83
2023/05/21 09:42:48;;;;;;;12.35;9.40;;;;;;;;;;5042795;28;20063;-81
2023/05/21 09:45:20;;;;;;;16.08;9.85;;;;;;;;;;5060433;28;20024;-84
2023/05/21 09:47:47;;;;;;;12.07;8.85;;;;;;;;;;5040771;28;20052;-84
2023/05/21 09:50:20;;;;;;;13.25;9.40;;;;;;;;;;5060403;28;20438;-81
2023/05/21 09:52:45;;;;;;;13.05;8.73;;;;;;;;;;5059331;28;20116;-83
2023/05/21 09:55:12;;;;;;;15.75;8.82;;;;;;;;;;5057992;28;20057;-83
2023/05/21 09:57:42;;;;;;;11.45;8.68;;;;;;;;;;5059364;28;20025;-82
2023/05/21 10:00:09;;;;;;;13.10;8.55;;;;;;;;;;5042395;28;20028;-83
2023/05/21 10:02:39;;;;;;;11.48;7.93;;;;;;;;;;5059399;28;20029;-83
2023/05/21 10:05:07;;;;;;;12.52;8.43;;;;;;;;;;5059386;28;20496;-82
2023/05/21 10:07:34;;;;;;;15.70;8.85;;;;;;;;;;5041256;28;20445;-83
2023/05/21 10:10:02;;;;;;;12.82;8.13;;;;;;;;;;5041049;28;20024;-80
2023/05/21 10:12:29;;;;;;;11.02;8.25;;;;;;;;;;5041181;28;20025;-83
2023/05/21 10:15:00;;;;;;;13.70;8.77;;;;;;;;;;5059129;28;20051;-81
2023/05/21 10:17:27;;;;;;;13.52;8.38;;;;;;;;;;5059418;28;20484;-82
2023/05/21 10:19:55;;;;;;;10.02;7.65;;;;;;;;;;5042910;28;20350;-82
2023/05/21 10:22:23;;;;;;;10.07;7.93;;;;;;;;;;5059548;28;20104;-82
2023/05/21 10:24:49;;;;;;;11.80;8.30;;;;;;;;;;5060414;28;20033;-82
2023/05/21 10:27:18;;;;;;;13.60;9.63;;;;;;;;;;5062509;28;20155;-82
2023/05/21 10:29:44;;;;;;;17.65;11.23;;;;;;;;;;5059590;28;20060;-83
2023/05/21 10:32:13;;;;;;;14.70;10.98;;;;;;;;;;5058437;28;20033;-84
2023/05/21 10:34:39;;;;;;;15.32;11.32;;;;;;;;;;5057107;28;20450;-83
2023/05/21 10:37:07;;;;;;;14.35;9.27;;;;;;;;;;5058052;28;20017;-82
2023/05/21 10:39:33;;;;;;;16.45;9.07;;;;;;;;;;5058880;28;20400;-83
2023/05/21 10:42:23;;;;;;;11.88;8.48;;;;;;;;;;5023399;28;20032;-82
2023/05/21 10:45:12;;;;;;;11.43;9.23;;;;;;;;;;5058257;28;20552;-82
2023/05/21 10:47:51;;;;;;;11.45;8.50;;;;;;;;;;5023308;28;20078;-82
2023/05/21 10:50:37;;;;;;;11.50;7.78;;;;;;;;;;5059030;28;20507;-82
2023/05/21 10:53:21;;;;;;;10.05;6.97;;;;;;;;;;5059296;28;20036;-79
2023/05/21 10:55:57;;;;;;;10.25;6.53;;;;;;;;;;5058149;28;20025;-81
2023/05/21 10:58:34;;;;;;;9.88;5.55;;;;;;;;;;5058758;28;20045;-79
2023/05/21 11:01:01;;;;;;;9.25;5.97;;;;;;;;;;5058275;28;20395;-78
2023/05/21 11:03:27;;;;;;;6.25;4.25;;;;;;;;;;5057969;28;20060;-79
2023/05/21 11:05:54;;;;;;;8.27;4.78;;;;;;;;;;5060219;28;20032;-79
2023/05/21 11:08:22;;;;;;;6.82;5.18;;;;;;;;;;5060067;28;20484;-79
2023/05/21 11:10:52;;;;;;;7.28;4.68;;;;;;;;;;5060172;28;20071;-81
2023/05/21 11:13:21;;;;;;;6.05;4.03;;;;;;;;;;5060128;28;20480;-80
2023/05/21 11:15:58;;;;;;;6.80;4.68;;;;;;;;;;5059594;28;20111;-79
2023/05/21 11:18:29;;;;;;;7.18;5.40;;;;;;;;;;5058656;28;20025;-79
2023/05/21 11:21:03;;;;;;;7.15;5.20;;;;;;;;;;5059102;28;20020;-85
2023/05/21 11:23:50;;;;;;;7.30;5.22;;;;;;;;;;5057854;28;20029;-79
2023/05/21 11:26:22;;;;;;;7.35;5.40;;;;;;;;;;5066151;28;20017;-80
2023/05/21 11:29:03;;;;;;;7.95;5.30;;;;;;;;;;5048365;28;20032;-80
2023/05/21 11:31:36;;;;;;;8.13;4.88;;;;;;;;;;5064936;28;20040;-79
2023/05/21 11:34:10;;;;;;;6.60;5.05;;;;;;;;;;5065913;28;20089;-79
2023/05/21 11:36:37;;;;;;;7.30;5.05;;;;;;;;;;5062784;28;20032;-79
2023/05/21 11:39:28;;;;;;;10.18;5.40;;;;;;;;;;5061383;28;20017;-79
2023/05/21 11:42:00;;;;;;;8.55;5.28;;;;;;;;;;5058579;28;20044;-79
2023/05/21 11:44:39;;;;;;;7.72;5.47;;;;;;;;;;5060848;28;20515;-78
2023/05/21 11:47:06;;;;;;;7.63;5.45;;;;;;;;;;5060706;28;20025;-78
2023/05/21 11:49:32;;;;;;;10.93;6.53;;;;;;;;;;5060885;28;20036;-78
2023/05/21 11:51:59;;;;;;;8.75;6.35;;;;;;;;;;5061080;28;20021;-80
2023/05/21 11:54:25;;;;;;;12.93;7.53;;;;;;;;;;5061454;28;20036;-81
2023/05/21 11:56:51;;;;;;;8.45;6.18;;;;;;;;;;5044420;28;20043;-81
2023/05/21 11:59:16;;;;;;;11.02;7.40;;;;;;;;;;5063601;28;20021;-79
2023/05/21 12:01:43;;;;;;;7.70;5.83;;;;;;;;;;5064441;28;20043;-79
2023/05/21 12:04:10;;;;;;;12.85;7.50;;;;;;;;;;5064294;28;20262;-79
2023/05/21 12:06:36;;;;;;;15.88;8.93;;;;;;;;;;5063741;28;20531;-79
2023/05/21 12:09:03;;;;;;;10.85;7.85;;;;;;;;;;5063823;28;20373;-80
2023/05/21 12:11:28;;;;;;;10.23;8.00;;;;;;;;;;5063098;28;20033;-80
2023/05/21 12:13:53;;;;;;;13.50;8.05;;;;;;;;;;5063587;28;20135;-80
2023/05/21 12:16:19;;;;;;;11.20;7.77;;;;;;;;;;5062182;28;20025;-80
2023/05/21 12:18:44;;;;;;;11.45;8.25;;;;;;;;;;5044645;28;20258;-80
2023/05/21 12:21:10;;;;;;;13.13;8.30;;;;;;;;;;5043285;28;20108;-80
2023/05/21 12:23:35;;;;;;;13.32;8.50;;;;;;;;;;5058866;28;20057;-79
2023/05/21 12:26:02;;;;;;;10.68;8.00;;;;;;;;;;5059334;28;20115;-78
2023/05/21 12:28:28;;;;;;;13.70;7.55;;;;;;;;;;5059367;28;20017;-78
2023/05/21 12:30:53;;;;;;;12.70;7.45;;;;;;;;;;5059207;28;20031;-79
2023/05/21 12:33:18;;;;;;;9.70;7.30;;;;;;;;;;5040048;28;20040;-78
2023/05/21 12:35:48;;;;;;;13.20;8.50;;;;;;;;;;5058609;28;20056;-79
2023/05/21 12:38:14;;;;;;;10.70;7.90;;;;;;;;;;5042532;28;20270;-79
2023/05/21 12:40:40;;;;;;;12.48;7.72;;;;;;;;;;5059864;28;20027;-82
2023/05/21 12:43:05;;;;;;;11.07;7.78;;;;;;;;;;5059525;28;20029;-81
2023/05/21 12:45:31;;;;;;;13.65;8.65;;;;;;;;;;5061865;28;20025;-77
2023/05/21 12:48:00;;;;;;;10.65;7.47;;;;;;;;;;5061214;28;20073;-79
2023/05/21 12:50:25;;;;;;;11.93;7.78;;;;;;;;;;5042710;28;20028;-79
2023/05/21 12:52:53;;;;;;;14.98;8.48;;;;;;;;;;5045943;28;20025;-80
2023/05/21 12:55:21;;;;;;;10.68;8.13;;;;;;;;;;5064296;28;20032;-80
2023/05/21 12:57:47;;;;;;;13.32;8.68;;;;;;;;;;5064245;28;20028;-80
2023/05/21 13:00:13;;;;;;;11.38;8.48;;;;;;;;;;5064321;28;20021;-79
2023/05/21 13:02:42;;;;;;;12.70;7.80;;;;;;;;;;5063541;28;20431;-79
2023/05/21 13:05:09;;;;;;;11.52;9.05;;;;;;;;;;5046842;28;20054;-79
2023/05/21 13:07:36;;;;;;;13.93;8.80;;;;;;;;;;5045200;28;20020;-80
2023/05/21 13:10:02;;;;;;;10.35;8.30;;;;;;;;;;5046024;28;20036;-79
2023/05/21 13:12:29;;;;;;;10.63;8.38;;;;;;;;;;5063270;28;20025;-78
2023/05/21 13:14:57;;;;;;;14.27;8.45;;;;;;;;;;5064502;28;20032;-80
2023/05/21 13:17:24;;;;;;;13.98;9.00;;;;;;;;;;5061438;28;20025;-78
2023/05/21 13:20:12;;;;;;;11.23;8.23;;;;;;;;;;5063751;28;20111;-80
2023/05/21 13:22:42;;;;;;;12.07;8.73;;;;;;;;;;5065039;28;20039;-78
2023/05/21 13:25:09;;;;;;;11.63;7.78;;;;;;;;;;5063562;28;20553;-78
2023/05/21 13:27:34;;;;;;;11.07;8.73;;;;;;;;;;5064091;28;20131;-79
2023/05/21 13:30:00;;;;;;;12.57;8.20;;;;;;;;;;5045842;28;20040;-80
2023/05/21 13:32:25;;;;;;;13.63;8.38;;;;;;;;;;5045300;28;20036;-81
2023/05/21 13:34:50;;;;;;;10.07;7.55;;;;;;;;;;5062598;28;20024;-80
2023/05/21 13:37:16;;;;;;;13.50;8.37;;;;;;;;;;5063982;28;20029;-79
2023/05/21 13:39:41;;;;;;;11.80;7.15;;;;;;;;;;5046729;28;20262;-78
2023/05/21 13:42:06;;;;;;;10.73;7.57;;;;;;;;;;5064918;28;20511;-78
2023/05/21 13:44:34;;;;;;;11.00;8.47;;;;;;;;;;5063276;28;20735;-79
2023/05/21 13:47:01;;;;;;;10.13;8.48;;;;;;;;;;5045306;28;20298;-80
2023/05/21 13:49:26;;;;;;;14.88;8.30;;;;;;;;;;5061760;28;20028;-78
2023/05/21 13:51:51;;;;;;;14.10;7.73;;;;;;;;;;5062093;28;20025;-80
2023/05/21 13:54:17;;;;;;;13.00;7.03;;;;;;;;;;5062409;28;20059;-79
2023/05/21 13:56:42;;;;;;;10.37;6.53;;;;;;;;;;5062494;28;20261;-80
2023/05/21 13:59:07;;;;;;;7.90;5.80;;;;;;;;;;5045203;28;20254;-78
2023/05/21 14:01:32;;;;;;;8.07;5.40;;;;;;;;;;5062673;28;20352;-81
2023/05/21 14:04:03;;;;;;;9.77;5.60;;;;;;;;;;5045116;28;20016;-79
2023/05/21 14:06:28;;;;;;;9.20;5.65;;;;;;;;;;5063552;28;20389;-80
2023/05/21 14:08:53;;;;;;;7.68;5.68;;;;;;;;;;5043761;28;20024;-79
2023/05/21 14:11:18;;;;;;;7.57;5.90;;;;;;;;;;5062553;28;20492;-80
2023/05/21 14:13:43;;;;;;;9.80;6.43;;;;;;;;;;5062857;28;20633;-79
2023/05/21 14:16:09;;;;;;;8.33;6.20;;;;;;;;;;5063372;28;20438;-79
2023/05/21 14:18:34;;;;;;;9.23;5.07;;;;;;;;;;5043283;28;20025;-79
2023/05/21 14:21:00;;;;;;;7.93;6.17;;;;;;;;;;5063421;28;20024;-78